METAR Data
IDs: Format: Raw Decoded Include TAF

Data at: 1233 UTC 23 Jun 2021

PAOR 231153Z 00000KT 8SM BCFG FEW110 08/07 A2974 RMK AO2 SLP072 T00780067 10189 20078 58006